Aviation Digital Data Service (ADDS)

Output produced by METARs form (0801 UTC 20 March 2019)
found at http://www.aviationweather.gov/metar/data/
 
Forecast for: LEBL (BARCELONA AIRPOR, ES)
Text: TAF LEBL 200500Z 2006/2106 34008KT 9999 FEW030 TX17/2012Z TN07/2006Z
Forecast period: 0600 to 0900 UTC 20 March 2019
Forecast type: FROM: standard forecast or significant change
Winds: from the NNW (340 degrees) at 9 MPH (8 knots; 4.1 m/s)
Visibility: 6 or more miles 10+ km)
Ceiling: at least 12,000 feet AGL
Clouds: few clouds at 3000 feet AGL
Weather: no significant weather forecast for this period
Text: BECMG 2009/2011 10010KT
Forecast period: 0900 to 1900 UTC 20 March 2019
Forecast type: BECOMING: Conditions expected to become as follows by 1100 UTC 20 March 2019
Winds: from the E (100 degrees) at 12 MPH (10 knots; 5.1 m/s)
Visibility: 6 or more miles 10+ km)
Ceiling: at least 12,000 feet AGL
Clouds: few clouds at 3000 feet AGL
Weather: no significant weather forecast for this period
Text: BECMG 2019/2021 33008KT
Forecast period: 1900 UTC 20 March 2019 to 0600 UTC 21 March 2019
Forecast type: BECOMING: Conditions expected to become as follows by 2100 UTC 20 March 2019
Winds: from the NNW (330 degrees) at 9 MPH (8 knots; 4.1 m/s)
Visibility: 6 or more miles 10+ km)
Ceiling: at least 12,000 feet AGL
Clouds: few clouds at 3000 feet AGL
Weather: no significant weather forecast for this period